createdAt,value
2022-10-17T00:00:41.233Z,6.04
2022-10-17T00:01:27.671Z,6.13
2022-10-17T00:02:14.087Z,6.28
2022-10-17T00:03:00.576Z,6.07
2022-10-17T00:03:47.001Z,5.75
2022-10-17T00:05:20.762Z,5.92
2022-10-17T00:06:09.781Z,5.86
2022-10-17T00:06:56.337Z,5.84
2022-10-17T00:07:42.815Z,6.18
2022-10-17T00:08:30.377Z,5.94
2022-10-17T00:09:17.002Z,5.99
2022-10-17T00:10:04.299Z,6.36
2022-10-17T00:11:01.524Z,6.25
2022-10-17T00:11:47.924Z,5.80
2022-10-17T00:12:35.289Z,5.55
2022-10-17T00:13:21.848Z,6.42
2022-10-17T00:14:08.379Z,5.91
2022-10-17T00:14:54.742Z,5.84
2022-10-17T00:15:43.997Z,5.70
2022-10-17T00:16:33.673Z,6.11
2022-10-17T00:17:20.101Z,5.60
2022-10-17T00:18:06.520Z,6.21
2022-10-17T00:18:53.473Z,5.78
2022-10-17T00:19:39.870Z,5.57
2022-10-17T00:20:26.378Z,5.66
2022-10-17T00:21:17.312Z,5.95
2022-10-17T00:22:03.744Z,5.92
2022-10-17T00:22:50.133Z,5.78
2022-10-17T00:23:36.495Z,5.87
2022-10-17T00:24:23.010Z,5.89
2022-10-17T00:25:09.821Z,5.76
2022-10-17T00:26:00.449Z,5.85
2022-10-17T00:26:46.826Z,5.55
2022-10-17T00:27:37.154Z,5.68
2022-10-17T00:28:23.726Z,5.65
2022-10-17T00:29:10.257Z,5.78
2022-10-17T00:29:56.704Z,5.82
2022-10-17T00:30:43.152Z,5.65
2022-10-17T00:31:29.934Z,5.68
2022-10-17T00:32:16.433Z,5.94
2022-10-17T00:33:02.945Z,5.45
2022-10-17T00:33:49.913Z,5.89
2022-10-17T00:34:36.298Z,5.66
2022-10-17T00:35:22.699Z,5.40
2022-10-17T00:36:12.589Z,5.66
2022-10-17T00:36:59.035Z,5.77
2022-10-17T00:37:45.488Z,5.96
2022-10-17T00:38:32.145Z,6.60
2022-10-17T00:39:18.595Z,5.82
2022-10-17T00:40:06.860Z,5.85
2022-10-17T00:40:53.254Z,6.04
2022-10-17T00:41:40.279Z,5.99
2022-10-17T00:42:27.369Z,6.27
2022-10-17T00:43:17.518Z,6.38
2022-10-17T00:44:06.812Z,6.48
2022-10-17T00:45:02.536Z,5.89
2022-10-17T00:45:48.914Z,5.99
2022-10-17T00:46:36.981Z,6.11
2022-10-17T00:47:23.537Z,6.29
2022-10-17T00:48:12.023Z,6.49
2022-10-17T00:49:01.172Z,5.95
2022-10-17T00:49:48.326Z,5.65
2022-10-17T00:50:36.265Z,5.93
2022-10-17T00:51:38.553Z,6.21
2022-10-17T00:52:27.181Z,6.15
2022-10-17T00:53:16.082Z,6.48
2022-10-17T00:54:03.718Z,6.13
2022-10-17T00:54:55.136Z,5.81
2022-10-17T00:55:50.304Z,6.01
2022-10-17T00:56:36.905Z,6.59
2022-10-17T00:57:25.313Z,6.49
2022-10-17T00:58:11.886Z,6.03
2022-10-17T00:58:58.466Z,6.24
2022-10-17T00:59:48.951Z,6.44
2022-10-17T01:00:36.873Z,6.41
2022-10-17T01:01:24.333Z,6.08
2022-10-17T01:02:13.446Z,5.56
2022-10-17T01:03:00.134Z,5.74
2022-10-17T01:03:46.616Z,5.91
2022-10-17T01:04:33.265Z,5.88
2022-10-17T01:05:19.705Z,5.75
2022-10-17T01:06:06.123Z,5.67
2022-10-17T01:06:52.696Z,5.74
2022-10-17T01:07:41.425Z,5.83
2022-10-17T01:08:28.016Z,5.91
2022-10-17T01:09:14.461Z,5.60
2022-10-17T01:10:01.253Z,5.78
2022-10-17T01:10:47.598Z,5.75
2022-10-17T01:11:56.924Z,5.70
2022-10-17T01:13:01.715Z,6.11
2022-10-17T01:13:57.085Z,5.89
2022-10-17T01:14:55.425Z,5.92
2022-10-17T01:16:00.076Z,5.54
2022-10-17T01:17:04.425Z,6.78
2022-10-17T01:18:03.236Z,5.63
2022-10-17T01:18:57.893Z,5.87
2022-10-17T01:20:04.109Z,5.80
2022-10-17T01:21:09.817Z,5.92
2022-10-17T01:22:10.345Z,5.63
2022-10-17T01:23:17.060Z,5.92
2022-10-17T01:24:12.566Z,5.76
2022-10-17T01:25:01.850Z,5.72
2022-10-17T01:25:58.075Z,6.36
2022-10-17T01:27:18.734Z,6.44
2022-10-17T01:28:26.320Z,6.29
2022-10-17T01:29:13.263Z,5.69
2022-10-17T01:30:11.179Z,5.74
2022-10-17T01:31:12.254Z,5.81
2022-10-17T01:31:58.670Z,5.69
2022-10-17T01:33:08.494Z,6.02
2022-10-17T01:33:57.810Z,5.73
2022-10-17T01:34:55.603Z,5.55
2022-10-17T01:35:48.781Z,5.97
2022-10-17T01:36:51.909Z,5.82
2022-10-17T01:37:46.898Z,6.21
2022-10-17T01:38:44.942Z,5.48
2022-10-17T01:39:45.653Z,5.97
2022-10-17T01:40:44.008Z,6.29
2022-10-17T01:41:36.190Z,5.93
2022-10-17T01:42:46.021Z,5.87
2022-10-17T01:43:43.258Z,5.52
2022-10-17T01:44:37.912Z,5.68
2022-10-17T01:45:33.149Z,5.98
2022-10-17T01:46:33.401Z,5.72
2022-10-17T01:47:22.365Z,5.99
2022-10-17T01:48:15.955Z,6.05
2022-10-17T01:49:05.330Z,5.58
2022-10-17T01:49:55.183Z,5.87
2022-10-17T01:50:46.285Z,5.99
2022-10-17T01:51:37.470Z,5.91
2022-10-17T01:52:30.307Z,6.04
2022-10-17T01:53:22.916Z,5.44
2022-10-17T01:54:18.231Z,5.81
2022-10-17T01:55:10.052Z,5.96
2022-10-17T01:56:00.209Z,6.00
2022-10-17T01:56:49.854Z,6.00
2022-10-17T01:57:40.744Z,5.43
2022-10-17T01:58:31.497Z,6.16
2022-10-17T01:59:25.131Z,5.52
2022-10-17T02:00:15.473Z,5.31
2022-10-17T02:01:05.550Z,5.55
2022-10-17T02:01:54.866Z,5.64
2022-10-17T02:02:45.113Z,5.60
2022-10-17T02:03:34.388Z,5.55
2022-10-17T02:04:21.482Z,5.88
2022-10-17T02:05:08.568Z,6.04
2022-10-17T02:05:55.083Z,5.66
2022-10-17T02:06:41.520Z,5.42
2022-10-17T02:07:31.226Z,5.96
2022-10-17T02:08:29.486Z,6.10
2022-10-17T02:09:21.778Z,5.60
2022-10-17T02:10:19.370Z,5.30
2022-10-17T02:11:12.111Z,5.80
2022-10-17T02:12:07.973Z,5.63
2022-10-17T02:13:00.715Z,5.88
2022-10-17T02:15:17.660Z,5.83
2022-10-17T02:16:13.561Z,5.30
2022-10-17T02:17:18.922Z,5.37
2022-10-17T02:18:06.049Z,5.94
2022-10-17T02:19:12.734Z,5.97
2022-10-17T02:20:02.243Z,5.97
2022-10-17T02:21:01.278Z,6.32
2022-10-17T02:21:47.655Z,6.19
2022-10-17T02:22:44.279Z,5.59
2022-10-17T02:23:35.696Z,6.05
2022-10-17T02:24:36.579Z,6.33
2022-10-17T02:25:55.427Z,6.09
2022-10-17T02:26:49.831Z,5.80
2022-10-17T02:27:43.873Z,5.63
2022-10-17T02:28:42.974Z,5.89
2022-10-17T02:29:34.502Z,6.09
2022-10-17T02:30:36.824Z,5.87
2022-10-17T02:31:32.588Z,5.82
2022-10-17T02:32:27.417Z,6.16
2022-10-17T02:33:25.481Z,5.66
2022-10-17T02:34:23.323Z,5.56
2022-10-17T02:35:14.334Z,5.94
2022-10-17T02:36:06.087Z,5.73
2022-10-17T02:36:56.099Z,5.92
2022-10-17T02:37:46.051Z,5.91
2022-10-17T02:38:35.100Z,5.77
2022-10-17T02:39:23.536Z,5.59
2022-10-17T02:40:14.238Z,6.00
2022-10-17T02:41:01.227Z,5.97
2022-10-17T02:41:51.690Z,5.67
2022-10-17T02:42:39.220Z,5.50
2022-10-17T02:43:25.941Z,5.90
2022-10-17T02:44:12.435Z,5.58
2022-10-17T02:45:01.308Z,5.80
2022-10-17T02:45:48.754Z,5.76
2022-10-17T02:46:38.306Z,6.05
2022-10-17T02:47:35.855Z,6.09
2022-10-17T02:48:28.838Z,5.87
2022-10-17T02:49:23.773Z,5.90
2022-10-17T02:50:11.038Z,5.56
2022-10-17T02:51:17.104Z,5.65
2022-10-17T02:52:03.500Z,5.68
2022-10-17T02:52:50.504Z,5.69
2022-10-17T02:53:51.195Z,5.43
2022-10-17T02:54:42.315Z,5.88
2022-10-17T02:55:40.109Z,6.04
2022-10-17T02:56:30.808Z,6.28
2022-10-17T02:57:19.896Z,5.37
2022-10-17T02:58:17.996Z,5.75
2022-10-17T02:59:07.351Z,5.45
2022-10-17T02:59:58.075Z,5.57
2022-10-17T03:00:45.529Z,5.72
2022-10-17T03:01:33.093Z,5.98
2022-10-17T03:02:19.567Z,5.63
2022-10-17T03:03:19.306Z,5.88
2022-10-17T03:04:07.389Z,5.49
2022-10-17T03:04:53.859Z,5.88
2022-10-17T03:05:40.522Z,5.47
2022-10-17T03:06:26.923Z,5.98
2022-10-17T03:07:13.576Z,5.64
2022-10-17T03:08:00.015Z,5.85
2022-10-17T03:08:46.454Z,5.57
2022-10-17T03:09:32.886Z,5.78
2022-10-17T03:10:19.668Z,5.90
2022-10-17T03:11:07.073Z,6.02
2022-10-17T03:11:53.549Z,5.90
2022-10-17T03:12:40.059Z,6.00
2022-10-17T03:13:27.541Z,5.82
2022-10-17T03:14:14.040Z,6.05
2022-10-17T03:15:01.067Z,5.62
2022-10-17T03:15:48.895Z,5.65
2022-10-17T03:16:35.682Z,6.36
2022-10-17T03:17:24.163Z,6.32
2022-10-17T03:18:10.808Z,5.69
2022-10-17T03:18:57.261Z,5.86
2022-10-17T03:19:43.739Z,5.86
2022-10-17T03:20:30.260Z,5.93
2022-10-17T03:21:16.677Z,5.78
2022-10-17T03:22:03.090Z,6.01
2022-10-17T03:22:50.577Z,6.02
2022-10-17T03:23:37.018Z,5.62
2022-10-17T03:24:25.072Z,5.68
2022-10-17T03:25:11.468Z,5.79
2022-10-17T03:25:57.859Z,5.39
2022-10-17T03:26:44.317Z,6.03
2022-10-17T03:27:31.194Z,5.88
2022-10-17T03:28:18.007Z,5.72
2022-10-17T03:29:04.485Z,5.48
2022-10-17T03:29:52.735Z,5.84
2022-10-17T03:30:40.375Z,5.70
2022-10-17T03:31:26.991Z,5.57
2022-10-17T03:32:13.474Z,5.99
2022-10-17T03:33:00.738Z,5.61
2022-10-17T03:33:47.317Z,5.68
2022-10-17T03:34:33.725Z,5.71
2022-10-17T03:35:20.658Z,5.84
2022-10-17T03:36:12.210Z,6.02
2022-10-17T03:36:58.633Z,6.44
2022-10-17T03:37:47.701Z,5.76
2022-10-17T03:38:35.519Z,5.83
2022-10-17T03:39:21.992Z,5.71
2022-10-17T03:40:08.650Z,5.23
2022-10-17T03:40:56.039Z,5.87
2022-10-17T03:41:42.474Z,5.58
2022-10-17T03:42:29.096Z,5.80
2022-10-17T03:43:15.479Z,5.79
2022-10-17T03:44:02.181Z,5.09
2022-10-17T03:44:48.568Z,5.74
2022-10-17T03:45:34.971Z,5.92
2022-10-17T03:46:22.016Z,5.98
2022-10-17T03:47:10.549Z,5.85
2022-10-17T03:47:59.852Z,5.79
2022-10-17T03:48:46.365Z,5.72
2022-10-17T03:49:32.761Z,5.73
2022-10-17T03:50:19.183Z,5.61
2022-10-17T03:51:07.279Z,5.89
2022-10-17T03:51:58.144Z,5.24
2022-10-17T03:52:48.402Z,5.47
2022-10-17T03:53:35.252Z,5.33
2022-10-17T03:54:21.719Z,6.19
2022-10-17T03:55:08.264Z,5.82
2022-10-17T03:55:54.849Z,5.60
2022-10-17T03:56:43.340Z,5.43
2022-10-17T03:57:34.422Z,5.84
2022-10-17T03:58:21.907Z,5.77
2022-10-17T03:59:12.468Z,5.80
2022-10-17T03:59:59.058Z,5.94
2022-10-17T04:00:45.480Z,5.81
2022-10-17T04:01:32.083Z,5.79
2022-10-17T04:02:19.000Z,5.86
2022-10-17T04:03:06.130Z,5.99
2022-10-17T04:03:53.672Z,5.72
2022-10-17T04:04:40.114Z,6.05
2022-10-17T04:05:27.125Z,6.21
2022-10-17T04:06:13.657Z,5.84
2022-10-17T04:07:02.639Z,5.85
2022-10-17T04:07:49.344Z,5.88
2022-10-17T04:08:38.572Z,5.61
2022-10-17T04:09:29.675Z,5.71
2022-10-17T04:10:25.191Z,5.86
2022-10-17T04:11:15.038Z,5.74
2022-10-17T04:12:02.234Z,6.13
2022-10-17T04:12:49.929Z,6.22
2022-10-17T04:13:37.602Z,6.01
2022-10-17T04:14:23.992Z,5.93
2022-10-17T04:15:11.317Z,6.45
2022-10-17T04:15:59.744Z,6.06
2022-10-17T04:16:46.332Z,6.16
2022-10-17T04:17:38.353Z,5.97
2022-10-17T04:18:26.575Z,5.76
2022-10-17T04:19:13.939Z,5.63
2022-10-17T04:20:04.577Z,5.74
2022-10-17T04:20:51.576Z,5.67
2022-10-17T04:21:38.864Z,5.66
2022-10-17T04:22:27.408Z,5.69
2022-10-17T04:23:14.036Z,6.04
2022-10-17T04:24:01.145Z,5.90
2022-10-17T04:25:06.320Z,5.62
2022-10-17T04:26:00.742Z,5.65
2022-10-17T04:26:49.558Z,6.05
2022-10-17T04:27:36.019Z,6.02
2022-10-17T04:28:23.047Z,5.89
2022-10-17T04:29:09.776Z,5.46
2022-10-17T04:29:57.179Z,5.58
2022-10-17T04:30:45.617Z,6.03
2022-10-17T04:31:32.706Z,6.03
2022-10-17T04:32:41.311Z,5.31
2022-10-17T04:33:34.614Z,5.33
2022-10-17T04:34:21.838Z,5.84
2022-10-17T04:35:08.667Z,6.16
2022-10-17T04:35:59.297Z,6.07
2022-10-17T04:36:47.073Z,5.85
2022-10-17T04:37:33.772Z,5.68
2022-10-17T04:38:28.857Z,5.64
2022-10-17T04:39:15.524Z,6.18
2022-10-17T04:40:01.980Z,5.89
2022-10-17T04:40:51.613Z,5.84
2022-10-17T04:41:38.183Z,6.18
2022-10-17T04:42:24.897Z,6.17
2022-10-17T04:43:13.275Z,6.01
2022-10-17T04:43:59.717Z,5.65
2022-10-17T04:44:46.834Z,5.76
2022-10-17T04:45:35.990Z,6.22
2022-10-17T04:46:24.697Z,6.47
2022-10-17T04:47:11.175Z,6.21
2022-10-17T04:47:58.722Z,6.36
2022-10-17T04:48:45.812Z,6.34
2022-10-17T04:49:32.629Z,6.28
2022-10-17T04:50:27.088Z,5.94
2022-10-17T04:51:31.898Z,6.07
2022-10-17T04:52:38.492Z,5.62
2022-10-17T04:53:25.248Z,5.75
2022-10-17T04:54:11.948Z,6.05
2022-10-17T04:55:01.846Z,6.04
2022-10-17T04:55:48.236Z,6.39
2022-10-17T04:56:34.798Z,6.28
2022-10-17T04:57:21.598Z,5.95
2022-10-17T04:58:22.020Z,5.85
2022-10-17T04:59:08.567Z,5.88
2022-10-17T04:59:57.935Z,5.65
2022-10-17T05:01:11.173Z,5.49
2022-10-17T05:01:59.314Z,5.52
2022-10-17T05:02:47.206Z,5.49
2022-10-17T05:03:35.192Z,5.89
2022-10-17T05:04:24.031Z,6.13
2022-10-17T05:05:12.365Z,5.81
2022-10-17T05:05:58.811Z,6.29
2022-10-17T05:06:46.146Z,6.09
2022-10-17T05:07:52.792Z,5.74
2022-10-17T05:08:43.465Z,6.23
2022-10-17T05:09:30.380Z,6.69
2022-10-17T05:10:17.074Z,6.45
2022-10-17T05:11:14.640Z,6.19
2022-10-17T05:12:02.646Z,5.96
2022-10-17T05:12:51.991Z,6.44
2022-10-17T05:13:41.330Z,6.28
2022-10-17T05:14:27.902Z,6.51
2022-10-17T05:15:14.372Z,6.16
2022-10-17T05:16:01.951Z,6.39
2022-10-17T05:16:48.457Z,5.94
2022-10-17T05:17:35.021Z,6.53
2022-10-17T05:18:21.452Z,6.62
2022-10-17T05:19:07.880Z,7.15
2022-10-17T05:20:01.254Z,7.03
2022-10-17T05:20:50.123Z,6.78
2022-10-17T05:21:37.800Z,6.92
2022-10-17T05:22:25.220Z,6.85
2022-10-17T05:23:11.858Z,6.68
2022-10-17T05:24:02.012Z,7.03
2022-10-17T05:24:48.489Z,6.79
2022-10-17T05:25:35.009Z,6.95
2022-10-17T05:26:22.578Z,6.77
2022-10-17T05:27:09.418Z,6.44
2022-10-17T05:27:55.943Z,7.06
2022-10-17T05:28:42.471Z,6.33
2022-10-17T05:29:28.939Z,6.43
2022-10-17T05:30:23.916Z,6.78
2022-10-17T05:31:15.552Z,6.84
2022-10-17T05:32:55.459Z,6.35
2022-10-17T05:33:41.917Z,6.34
2022-10-17T05:34:28.359Z,6.61
2022-10-17T05:35:14.857Z,6.74
2022-10-17T05:36:01.772Z,6.44
2022-10-17T05:36:48.208Z,6.59
2022-10-17T05:37:38.467Z,6.52
2022-10-17T05:38:25.779Z,6.74
2022-10-17T05:39:14.746Z,6.86
2022-10-17T05:40:01.986Z,6.34
2022-10-17T05:40:49.982Z,6.51
2022-10-17T05:41:36.397Z,6.60
2022-10-17T05:42:23.153Z,6.41
2022-10-17T05:43:09.599Z,6.18
2022-10-17T05:43:56.797Z,7.03
2022-10-17T05:45:02.096Z,6.50
2022-10-17T05:45:50.271Z,6.32
2022-10-17T05:46:39.984Z,6.39
2022-10-17T05:47:27.010Z,6.82
2022-10-17T05:48:14.104Z,6.58
2022-10-17T05:49:00.509Z,6.55
2022-10-17T05:49:51.381Z,6.41
2022-10-17T05:50:42.535Z,6.76
2022-10-17T05:51:34.160Z,7.52
2022-10-17T05:52:23.342Z,6.71
2022-10-17T05:53:33.253Z,6.82
2022-10-17T05:54:23.521Z,6.87
2022-10-17T05:55:10.069Z,6.31
2022-10-17T05:55:57.546Z,6.25
2022-10-17T05:56:44.222Z,6.45
2022-10-17T05:57:30.716Z,6.48
2022-10-17T05:58:22.325Z,6.54
2022-10-17T05:59:17.272Z,6.33
2022-10-17T06:00:10.380Z,6.70
2022-10-17T06:01:08.239Z,6.44
2022-10-17T06:01:58.004Z,6.21
2022-10-17T06:02:47.619Z,6.28
2022-10-17T06:03:35.648Z,6.01
2022-10-17T06:04:27.748Z,6.20
2022-10-17T06:05:14.954Z,6.38
2022-10-17T06:06:09.299Z,6.61
2022-10-17T06:06:57.575Z,6.67
2022-10-17T06:07:44.484Z,6.05
2022-10-17T06:08:32.564Z,6.56
2022-10-17T06:09:19.551Z,6.62
2022-10-17T06:10:09.774Z,6.12
2022-10-17T06:10:56.302Z,6.19
2022-10-17T06:11:42.793Z,6.59
2022-10-17T06:12:31.264Z,6.19
2022-10-17T06:13:19.093Z,6.41
2022-10-17T06:14:09.223Z,6.96
2022-10-17T06:14:57.293Z,6.79
2022-10-17T06:15:44.069Z,6.53
2022-10-17T06:16:30.611Z,5.99
2022-10-17T06:17:17.101Z,6.25
2022-10-17T06:18:04.208Z,6.07
2022-10-17T06:18:50.636Z,5.68
2022-10-17T06:19:37.114Z,5.90
2022-10-17T06:20:23.518Z,6.77
2022-10-17T06:21:11.350Z,6.87
2022-10-17T06:22:02.535Z,6.90
2022-10-17T06:22:49.244Z,6.55
2022-10-17T06:23:43.894Z,7.12
2022-10-17T06:24:43.817Z,6.70
2022-10-17T06:25:31.591Z,6.81
2022-10-17T06:26:18.623Z,6.74
2022-10-17T06:27:10.818Z,6.76
2022-10-17T06:27:59.248Z,6.99
2022-10-17T06:28:45.859Z,6.27
2022-10-17T06:29:32.653Z,6.06
2022-10-17T06:30:19.953Z,6.64
2022-10-17T06:31:08.112Z,6.76
2022-10-17T06:31:55.329Z,6.63
2022-10-17T06:32:41.884Z,6.72
2022-10-17T06:33:28.604Z,6.16
2022-10-17T06:34:15.195Z,6.11
2022-10-17T06:35:01.608Z,6.73
2022-10-17T06:35:53.412Z,6.78
2022-10-17T06:36:40.726Z,6.24
2022-10-17T06:37:35.311Z,6.03
2022-10-17T06:38:26.905Z,6.25
2022-10-17T06:39:15.841Z,6.33
2022-10-17T06:40:17.184Z,6.39
2022-10-17T06:41:08.292Z,5.94
2022-10-17T06:41:54.829Z,6.09
2022-10-17T06:42:56.378Z,5.79
2022-10-17T06:43:46.440Z,5.91
2022-10-17T06:45:05.649Z,5.65
2022-10-17T06:45:58.689Z,5.91
2022-10-17T06:47:13.426Z,6.46
2022-10-17T06:48:02.592Z,6.31
2022-10-17T06:49:12.038Z,6.15
2022-10-17T06:50:10.440Z,6.10
2022-10-17T06:51:04.637Z,5.71
2022-10-17T06:51:56.579Z,6.09
2022-10-17T06:52:51.695Z,5.80
2022-10-17T06:53:58.230Z,5.77
2022-10-17T06:55:07.966Z,6.22
2022-10-17T06:56:09.603Z,5.95
2022-10-17T06:57:10.335Z,5.79
2022-10-17T06:58:11.730Z,5.99
2022-10-17T06:59:15.626Z,5.81
2022-10-17T07:00:10.053Z,5.87
2022-10-17T07:01:04.967Z,6.02
2022-10-17T07:01:51.438Z,5.82
2022-10-17T07:02:37.924Z,5.67
2022-10-17T07:03:24.744Z,5.80
2022-10-17T07:04:11.275Z,5.87
2022-10-17T07:04:57.733Z,6.08
2022-10-17T07:05:51.450Z,5.82
2022-10-17T07:06:38.630Z,6.36
2022-10-17T07:07:32.517Z,5.80
2022-10-17T07:08:19.315Z,6.20
2022-10-17T07:09:06.965Z,6.39
2022-10-17T07:09:55.826Z,5.99
2022-10-17T07:10:42.339Z,6.15
2022-10-17T07:11:29.856Z,5.94
2022-10-17T07:12:16.283Z,6.30
2022-10-17T07:13:04.983Z,5.89
2022-10-17T07:13:53.211Z,5.57
2022-10-17T07:14:41.229Z,5.31
2022-10-17T07:15:27.887Z,5.64
2022-10-17T07:16:16.005Z,5.43
2022-10-17T07:17:05.059Z,5.19
2022-10-17T07:17:52.573Z,5.80
2022-10-17T07:18:40.655Z,5.65
2022-10-17T07:19:27.176Z,5.64
2022-10-17T07:20:13.661Z,5.48
2022-10-17T07:21:01.391Z,5.11
2022-10-17T07:21:49.074Z,5.42
2022-10-17T07:22:35.901Z,5.69
2022-10-17T07:23:23.271Z,5.57
2022-10-17T07:24:09.917Z,5.19
2022-10-17T07:24:57.527Z,5.05
2022-10-17T07:25:50.227Z,5.38
2022-10-17T07:26:37.179Z,5.25
2022-10-17T07:27:24.003Z,4.87
2022-10-17T07:28:10.712Z,4.99
2022-10-17T07:28:58.491Z,5.76
2022-10-17T07:29:53.879Z,5.35
2022-10-17T07:30:53.798Z,5.49
2022-10-17T07:31:40.973Z,5.07
2022-10-17T07:32:27.393Z,5.54
2022-10-17T07:33:13.857Z,5.35
2022-10-17T07:34:00.828Z,5.12
2022-10-17T07:34:48.189Z,5.27
2022-10-17T07:35:34.867Z,5.02
2022-10-17T07:36:21.356Z,4.94
2022-10-17T07:37:09.792Z,5.39
2022-10-17T07:37:58.561Z,5.14
2022-10-17T07:38:46.645Z,4.91
2022-10-17T07:39:35.516Z,4.97
2022-10-17T07:40:22.164Z,4.98
2022-10-17T07:41:09.144Z,5.29
2022-10-17T07:41:55.765Z,5.10
2022-10-17T07:42:44.000Z,5.14
2022-10-17T07:43:31.539Z,5.25
2022-10-17T07:44:19.777Z,4.86
2022-10-17T07:45:09.855Z,5.04
2022-10-17T07:45:57.170Z,5.36
2022-10-17T07:46:43.647Z,5.51
2022-10-17T07:47:31.481Z,5.22
2022-10-17T07:48:19.898Z,5.24
2022-10-17T07:49:06.297Z,5.33
2022-10-17T07:49:53.334Z,5.09
2022-10-17T07:50:39.773Z,5.22
2022-10-17T07:51:26.837Z,5.31
2022-10-17T07:52:14.392Z,4.94
2022-10-17T07:53:00.926Z,5.30
2022-10-17T07:53:48.902Z,5.16
2022-10-17T07:54:35.541Z,5.05
2022-10-17T07:55:21.982Z,5.08
2022-10-17T07:56:09.457Z,5.02
2022-10-17T07:56:55.967Z,4.80
2022-10-17T07:57:42.396Z,5.59
2022-10-17T07:58:29.423Z,5.23
2022-10-17T07:59:19.494Z,4.92
2022-10-17T08:00:07.045Z,4.83
2022-10-17T08:01:49.127Z,5.21
2022-10-17T08:02:35.506Z,4.99
2022-10-17T08:03:21.860Z,5.62
2022-10-17T08:04:08.339Z,5.62
2022-10-17T08:04:54.793Z,5.15
2022-10-17T08:05:41.178Z,5.02
2022-10-17T08:06:27.651Z,4.76
2022-10-17T08:07:22.069Z,4.81
2022-10-17T08:08:10.722Z,5.18
2022-10-17T08:08:58.441Z,4.87
2022-10-17T08:09:45.740Z,5.22
2022-10-17T08:10:32.272Z,5.04
2022-10-17T08:11:19.222Z,4.99
2022-10-17T08:12:05.891Z,4.99
2022-10-17T08:12:54.358Z,5.16
2022-10-17T08:13:41.683Z,5.09
2022-10-17T08:14:28.217Z,5.13
2022-10-17T08:15:14.860Z,4.84
2022-10-17T08:16:02.259Z,4.56
2022-10-17T08:16:49.099Z,5.15
2022-10-17T08:17:37.075Z,4.99
2022-10-17T08:18:23.540Z,4.73
2022-10-17T08:19:11.416Z,4.62
2022-10-17T08:19:57.889Z,4.95
2022-10-17T08:20:44.912Z,5.03
2022-10-17T08:21:31.373Z,5.20
2022-10-17T08:22:18.129Z,5.35
2022-10-17T08:23:04.654Z,5.14
2022-10-17T08:23:51.082Z,5.09
2022-10-17T08:24:37.868Z,4.96
2022-10-17T08:25:24.872Z,5.09
2022-10-17T08:26:13.432Z,4.76
2022-10-17T08:27:00.652Z,4.83
2022-10-17T08:27:47.203Z,4.91
2022-10-17T08:28:37.419Z,4.72
2022-10-17T08:29:24.673Z,4.93
2022-10-17T08:30:11.233Z,4.85
2022-10-17T08:31:08.824Z,5.03
2022-10-17T08:32:00.988Z,4.73
2022-10-17T08:32:48.424Z,4.65
2022-10-17T08:33:35.145Z,4.95
2022-10-17T08:34:21.543Z,4.73
2022-10-17T08:35:08.165Z,4.79
2022-10-17T08:35:54.519Z,4.91
2022-10-17T08:36:40.979Z,4.77
2022-10-17T08:37:27.751Z,4.71
2022-10-17T08:38:15.284Z,4.65
2022-10-17T08:39:03.765Z,4.98
2022-10-17T08:39:50.148Z,4.70
2022-10-17T08:40:38.276Z,5.19
2022-10-17T08:41:54.930Z,5.12
2022-10-17T08:43:05.163Z,4.78
2022-10-17T08:44:00.721Z,4.88
2022-10-17T08:44:59.033Z,4.95
2022-10-17T08:45:50.990Z,4.58
2022-10-17T08:46:40.121Z,4.79
2022-10-17T08:47:36.112Z,5.12
2022-10-17T08:48:27.170Z,4.62
2022-10-17T08:49:22.049Z,4.61
2022-10-17T08:50:16.879Z,4.57
2022-10-17T08:51:11.964Z,5.11
2022-10-17T08:52:03.525Z,4.73
2022-10-17T08:53:02.824Z,4.93
2022-10-17T08:53:54.935Z,4.62
2022-10-17T08:54:45.495Z,4.83
2022-10-17T08:55:45.571Z,4.78
2022-10-17T08:56:48.155Z,4.73
2022-10-17T08:57:35.371Z,4.57
2022-10-17T08:58:28.142Z,4.68
2022-10-17T08:59:17.704Z,4.95
2022-10-17T09:00:04.295Z,4.53
2022-10-17T09:00:56.796Z,4.31
2022-10-17T09:01:49.108Z,4.32
2022-10-17T09:02:41.394Z,4.65
2022-10-17T09:03:29.736Z,4.54
2022-10-17T09:04:18.809Z,4.66
2022-10-17T09:05:05.219Z,4.24
2022-10-17T09:05:51.627Z,4.76
2022-10-17T09:06:42.064Z,4.40
2022-10-17T09:07:31.571Z,4.52
2022-10-17T09:08:37.403Z,4.27
2022-10-17T09:09:44.038Z,4.57
2022-10-17T09:10:50.719Z,4.99
2022-10-17T09:11:41.738Z,4.53
2022-10-17T09:12:41.976Z,4.57
2022-10-17T09:14:53.753Z,4.55
2022-10-17T09:15:53.498Z,4.41
2022-10-17T09:16:48.740Z,4.58
2022-10-17T09:17:43.885Z,4.43
2022-10-17T09:18:46.712Z,4.34
2022-10-17T09:19:39.207Z,4.25
2022-10-17T09:20:33.357Z,4.96
2022-10-17T09:21:25.031Z,4.34
2022-10-17T09:22:19.052Z,4.57
2022-10-17T09:23:20.477Z,4.84
2022-10-17T09:24:15.708Z,4.29
2022-10-17T09:25:06.814Z,4.41
2022-10-17T09:25:54.822Z,4.25
2022-10-17T09:26:44.249Z,4.36
2022-10-17T09:27:36.479Z,4.36
2022-10-17T09:28:32.568Z,4.41
2022-10-17T09:29:22.630Z,4.46
2022-10-17T09:30:44.301Z,4.30
2022-10-17T09:31:43.306Z,4.45
2022-10-17T09:32:29.909Z,4.35
2022-10-17T09:33:34.314Z,4.06
2022-10-17T09:34:32.501Z,4.67
2022-10-17T09:35:20.874Z,4.54
2022-10-17T09:36:16.063Z,4.69
2022-10-17T09:37:03.549Z,4.41
2022-10-17T09:37:51.041Z,4.87
2022-10-17T09:38:42.847Z,4.87
2022-10-17T09:39:33.001Z,4.25
2022-10-17T09:40:24.257Z,4.45
2022-10-17T09:41:42.963Z,4.77
2022-10-17T09:42:26.783Z,4.30
2022-10-17T09:43:15.233Z,4.64
2022-10-17T09:44:16.241Z,4.56
2022-10-17T09:45:26.730Z,4.39
2022-10-17T09:46:13.183Z,4.17
2022-10-17T09:47:05.644Z,4.77
2022-10-17T09:47:59.534Z,4.19
2022-10-17T09:48:55.170Z,4.27
2022-10-17T09:49:43.290Z,4.50
2022-10-17T09:50:34.255Z,4.21
2022-10-17T09:51:26.222Z,4.43
2022-10-17T09:52:12.731Z,4.51
2022-10-17T09:53:04.620Z,4.52
2022-10-17T09:53:57.041Z,4.42
2022-10-17T09:54:51.473Z,4.30
2022-10-17T09:55:44.058Z,4.16
2022-10-17T09:56:30.543Z,4.23
2022-10-17T09:57:18.010Z,4.09
2022-10-17T09:58:06.005Z,4.43
2022-10-17T09:58:57.154Z,4.35
2022-10-17T09:59:49.552Z,4.66
2022-10-17T10:00:38.503Z,4.52
2022-10-17T10:01:31.573Z,4.59
2022-10-17T10:02:19.657Z,4.42
2022-10-17T10:03:22.516Z,4.81
2022-10-17T10:04:13.766Z,4.14
2022-10-17T10:05:04.626Z,4.64
2022-10-17T10:06:12.014Z,4.41
2022-10-17T10:07:06.730Z,4.43
2022-10-17T10:08:04.904Z,4.27
2022-10-17T10:08:53.453Z,4.20
2022-10-17T10:09:40.477Z,4.13
2022-10-17T10:10:29.073Z,4.31
2022-10-17T10:11:15.573Z,4.52
2022-10-17T10:12:06.885Z,4.49
2022-10-17T10:13:11.922Z,4.34
2022-10-17T10:14:11.218Z,4.75
2022-10-17T10:14:57.944Z,4.07
2022-10-17T10:15:45.912Z,4.30
2022-10-17T10:16:33.216Z,4.35
2022-10-17T10:17:41.907Z,4.67
2022-10-17T10:18:28.580Z,4.53
2022-10-17T10:19:33.504Z,4.57
2022-10-17T10:20:31.621Z,4.50
2022-10-17T10:21:22.892Z,4.37
2022-10-17T10:22:16.016Z,4.07
2022-10-17T10:23:07.115Z,3.90
2022-10-17T10:23:59.308Z,4.07
2022-10-17T10:24:45.890Z,3.96
2022-10-17T10:25:32.947Z,4.24
2022-10-17T10:26:34.497Z,4.40
2022-10-17T10:27:21.918Z,4.61
2022-10-17T10:28:11.957Z,4.70
2022-10-17T10:29:03.396Z,4.27
2022-10-17T10:29:51.446Z,4.08
2022-10-17T10:30:39.971Z,4.21
2022-10-17T10:31:29.810Z,4.29
2022-10-17T10:32:26.199Z,4.43
2022-10-17T10:33:12.929Z,4.53
2022-10-17T10:34:02.231Z,4.07
2022-10-17T10:34:54.043Z,4.40
2022-10-17T10:35:40.796Z,4.35
2022-10-17T10:36:42.608Z,4.52
2022-10-17T10:37:43.734Z,4.15
2022-10-17T10:38:32.404Z,4.52
2022-10-17T10:39:45.271Z,4.50
2022-10-17T10:40:37.187Z,4.32
2022-10-17T10:41:27.497Z,4.79
2022-10-17T10:42:21.113Z,4.08
2022-10-17T10:43:08.743Z,4.27
2022-10-17T10:43:56.289Z,4.81
2022-10-17T10:44:42.981Z,4.41
2022-10-17T10:45:49.711Z,4.42
2022-10-17T10:46:36.243Z,4.54
2022-10-17T10:47:26.110Z,4.65
2022-10-17T10:48:21.920Z,4.79
2022-10-17T10:49:28.236Z,4.63
2022-10-17T10:50:23.773Z,4.58
2022-10-17T10:51:16.571Z,4.90
2022-10-17T10:52:05.384Z,4.29
2022-10-17T10:53:09.687Z,4.08
2022-10-17T10:54:03.173Z,4.37
2022-10-17T10:55:01.035Z,4.50
2022-10-17T10:55:58.283Z,4.39
2022-10-17T10:56:49.814Z,4.26
2022-10-17T10:57:39.902Z,4.52
2022-10-17T10:58:26.540Z,4.47
2022-10-17T10:59:21.478Z,4.18
2022-10-17T11:00:22.057Z,4.78
2022-10-17T11:01:17.296Z,4.73
2022-10-17T11:02:16.585Z,4.90
2022-10-17T11:03:15.541Z,4.87
2022-10-17T11:04:16.401Z,4.41
2022-10-17T11:05:08.694Z,4.31
2022-10-17T11:06:00.290Z,4.20
2022-10-17T11:06:49.890Z,4.38
2022-10-17T11:07:44.785Z,4.49
2022-10-17T11:08:38.650Z,4.56
2022-10-17T11:09:34.207Z,4.23
2022-10-17T11:10:20.590Z,4.16
2022-10-17T11:11:18.116Z,4.41
2022-10-17T11:12:12.808Z,4.58
2022-10-17T11:13:04.756Z,4.38
2022-10-17T11:13:58.254Z,4.40
2022-10-17T11:14:53.953Z,4.16
2022-10-17T11:15:45.977Z,4.56
2022-10-17T11:16:38.253Z,4.24
2022-10-17T11:17:43.473Z,3.88
2022-10-17T11:18:44.255Z,4.27
2022-10-17T11:19:49.468Z,4.48
2022-10-17T11:20:55.422Z,4.63
2022-10-17T11:22:38.638Z,4.55
2022-10-17T11:23:25.132Z,4.63